sensor_id;sensor_type;location;lat;lon;timestamp;temperature;humidity
49465;DHT22;35358;49.342;8.802;2023-04-23T00:01:16;12.80;99.90
49465;DHT22;35358;49.342;8.802;2023-04-23T00:03:50;12.80;99.90
49465;DHT22;35358;49.342;8.802;2023-04-23T00:06:17;12.80;99.90
49465;DHT22;35358;49.342;8.802;2023-04-23T00:08:44;12.80;99.90
49465;DHT22;35358;49.342;8.802;2023-04-23T00:11:10;12.80;99.90
49465;DHT22;35358;49.342;8.802;2023-04-23T00:13:36;12.80;99.90
49465;DHT22;35358;49.342;8.802;2023-04-23T00:16:02;12.70;99.90
49465;DHT22;35358;49.342;8.802;2023-04-23T00:18:27;12.70;99.90
49465;DHT22;35358;49.342;8.802;2023-04-23T00:20:56;12.60;99.90
49465;DHT22;35358;49.342;8.802;2023-04-23T00:23:21;12.60;99.90
49465;DHT22;35358;49.342;8.802;2023-04-23T00:25:47;12.70;99.90
49465;DHT22;35358;49.342;8.802;2023-04-23T00:28:16;12.60;99.90
49465;DHT22;35358;49.342;8.802;2023-04-23T00:30:41;12.60;99.90
49465;DHT22;35358;49.342;8.802;2023-04-23T00:33:09;12.60;99.90
49465;DHT22;35358;49.342;8.802;2023-04-23T00:35:35;12.60;99.90
49465;DHT22;35358;49.342;8.802;2023-04-23T00:38:05;12.60;99.90
49465;DHT22;35358;49.342;8.802;2023-04-23T00:40:31;12.60;99.90
49465;DHT22;35358;49.342;8.802;2023-04-23T00:42:57;12.50;99.90
49465;DHT22;35358;49.342;8.802;2023-04-23T00:45:28;12.50;99.90
49465;DHT22;35358;49.342;8.802;2023-04-23T00:47:55;12.50;99.90
49465;DHT22;35358;49.342;8.802;2023-04-23T00:50:20;12.40;99.90
49465;DHT22;35358;49.342;8.802;2023-04-23T00:52:46;12.40;99.90
49465;DHT22;35358;49.342;8.802;2023-04-23T00:55:12;12.50;99.90
49465;DHT22;35358;49.342;8.802;2023-04-23T00:57:37;12.50;99.90
49465;DHT22;35358;49.342;8.802;2023-04-23T01:00:07;12.40;99.90
49465;DHT22;35358;49.342;8.802;2023-04-23T01:02:34;12.50;99.90
49465;DHT22;35358;49.342;8.802;2023-04-23T01:05:03;12.50;99.90
49465;DHT22;35358;49.342;8.802;2023-04-23T01:07:30;12.50;99.90
49465;DHT22;35358;49.342;8.802;2023-04-23T01:10:03;12.40;99.90
49465;DHT22;35358;49.342;8.802;2023-04-23T01:12:32;12.40;99.90
49465;DHT22;35358;49.342;8.802;2023-04-23T01:15:00;12.40;99.90
49465;DHT22;35358;49.342;8.802;2023-04-23T01:17:26;12.40;99.90
49465;DHT22;35358;49.342;8.802;2023-04-23T01:19:52;12.40;99.90
49465;DHT22;35358;49.342;8.802;2023-04-23T01:22:20;12.30;99.90
49465;DHT22;35358;49.342;8.802;2023-04-23T01:24:48;12.40;99.90
49465;DHT22;35358;49.342;8.802;2023-04-23T01:27:13;12.40;99.90
49465;DHT22;35358;49.342;8.802;2023-04-23T01:29:40;12.40;99.90
49465;DHT22;35358;49.342;8.802;2023-04-23T01:32:09;12.40;99.90
49465;DHT22;35358;49.342;8.802;2023-04-23T01:34:34;12.40;99.90
49465;DHT22;35358;49.342;8.802;2023-04-23T01:37:02;12.40;99.90
49465;DHT22;35358;49.342;8.802;2023-04-23T01:39:28;12.40;99.90
49465;DHT22;35358;49.342;8.802;2023-04-23T01:41:54;12.40;99.90
49465;DHT22;35358;49.342;8.802;2023-04-23T01:44:19;12.40;99.90
49465;DHT22;35358;49.342;8.802;2023-04-23T01:46:45;12.40;99.90
49465;DHT22;35358;49.342;8.802;2023-04-23T01:49:14;12.40;99.90
49465;DHT22;35358;49.342;8.802;2023-04-23T01:51:39;12.50;99.90
49465;DHT22;35358;49.342;8.802;2023-04-23T01:54:05;12.40;99.90
49465;DHT22;35358;49.342;8.802;2023-04-23T01:56:31;12.40;99.90
49465;DHT22;35358;49.342;8.802;2023-04-23T01:58:59;12.50;99.90
49465;DHT22;35358;49.342;8.802;2023-04-23T02:01:24;12.50;99.90
49465;DHT22;35358;49.342;8.802;2023-04-23T02:03:50;12.40;99.90
49465;DHT22;35358;49.342;8.802;2023-04-23T02:06:16;12.40;99.90
49465;DHT22;35358;49.342;8.802;2023-04-23T02:08:42;12.40;99.90
49465;DHT22;35358;49.342;8.802;2023-04-23T02:11:07;12.40;99.90
49465;DHT22;35358;49.342;8.802;2023-04-23T02:13:33;12.40;99.90
49465;DHT22;35358;49.342;8.802;2023-04-23T02:16:01;12.30;99.90
49465;DHT22;35358;49.342;8.802;2023-04-23T02:18:29;12.30;99.90
49465;DHT22;35358;49.342;8.802;2023-04-23T02:20:55;12.40;99.90
49465;DHT22;35358;49.342;8.802;2023-04-23T02:23:22;12.30;99.90
49465;DHT22;35358;49.342;8.802;2023-04-23T02:25:48;12.30;99.90
49465;DHT22;35358;49.342;8.802;2023-04-23T02:28:16;12.30;99.90
49465;DHT22;35358;49.342;8.802;2023-04-23T02:30:44;12.30;99.90
49465;DHT22;35358;49.342;8.802;2023-04-23T02:33:12;12.20;99.90
49465;DHT22;35358;49.342;8.802;2023-04-23T02:35:40;12.30;99.90
49465;DHT22;35358;49.342;8.802;2023-04-23T02:38:10;12.20;99.90
49465;DHT22;35358;49.342;8.802;2023-04-23T02:40:36;12.30;99.90
49465;DHT22;35358;49.342;8.802;2023-04-23T02:43:01;12.30;99.90
49465;DHT22;35358;49.342;8.802;2023-04-23T02:45:27;12.20;99.90
49465;DHT22;35358;49.342;8.802;2023-04-23T02:47:53;12.20;99.90
49465;DHT22;35358;49.342;8.802;2023-04-23T02:50:18;12.20;99.90
49465;DHT22;35358;49.342;8.802;2023-04-23T02:52:46;12.20;99.90
49465;DHT22;35358;49.342;8.802;2023-04-23T02:55:13;12.20;99.90
49465;DHT22;35358;49.342;8.802;2023-04-23T02:57:41;12.20;99.90
49465;DHT22;35358;49.342;8.802;2023-04-23T03:00:12;12.20;99.90
49465;DHT22;35358;49.342;8.802;2023-04-23T03:02:41;12.20;99.90
49465;DHT22;35358;49.342;8.802;2023-04-23T03:05:07;12.20;99.90
49465;DHT22;35358;49.342;8.802;2023-04-23T03:07:33;12.20;99.90
49465;DHT22;35358;49.342;8.802;2023-04-23T03:10:01;12.20;99.90
49465;DHT22;35358;49.342;8.802;2023-04-23T03:12:29;12.20;99.90
49465;DHT22;35358;49.342;8.802;2023-04-23T03:14:58;12.20;99.90
49465;DHT22;35358;49.342;8.802;2023-04-23T03:17:23;12.20;99.90
49465;DHT22;35358;49.342;8.802;2023-04-23T03:19:49;12.20;99.90
49465;DHT22;35358;49.342;8.802;2023-04-23T03:22:17;12.20;99.90
49465;DHT22;35358;49.342;8.802;2023-04-23T03:24:45;12.10;99.90
49465;DHT22;35358;49.342;8.802;2023-04-23T03:27:13;12.10;99.90
49465;DHT22;35358;49.342;8.802;2023-04-23T03:29:39;12.10;99.90
49465;DHT22;35358;49.342;8.802;2023-04-23T03:32:04;12.10;99.90
49465;DHT22;35358;49.342;8.802;2023-04-23T03:34:32;12.10;99.90
49465;DHT22;35358;49.342;8.802;2023-04-23T03:37:00;12.10;99.90
49465;DHT22;35358;49.342;8.802;2023-04-23T03:39:28;12.10;99.90
49465;DHT22;35358;49.342;8.802;2023-04-23T03:41:56;12.00;99.90
49465;DHT22;35358;49.342;8.802;2023-04-23T03:44:22;12.00;99.90
49465;DHT22;35358;49.342;8.802;2023-04-23T03:46:48;12.00;99.90
49465;DHT22;35358;49.342;8.802;2023-04-23T03:49:15;12.00;99.90
49465;DHT22;35358;49.342;8.802;2023-04-23T03:51:48;12.00;99.90
49465;DHT22;35358;49.342;8.802;2023-04-23T03:54:14;12.00;99.90
49465;DHT22;35358;49.342;8.802;2023-04-23T03:56:41;11.90;99.90
49465;DHT22;35358;49.342;8.802;2023-04-23T03:59:09;11.90;99.90
49465;DHT22;35358;49.342;8.802;2023-04-23T04:01:35;11.90;99.90
49465;DHT22;35358;49.342;8.802;2023-04-23T04:04:03;11.90;99.90
49465;DHT22;35358;49.342;8.802;2023-04-23T04:06:34;11.90;99.90
49465;DHT22;35358;49.342;8.802;2023-04-23T04:09:02;11.90;99.90
49465;DHT22;35358;49.342;8.802;2023-04-23T04:11:30;11.80;99.90
49465;DHT22;35358;49.342;8.802;2023-04-23T04:13:58;11.80;99.90
49465;DHT22;35358;49.342;8.802;2023-04-23T04:16:24;11.70;99.90
49465;DHT22;35358;49.342;8.802;2023-04-23T04:18:49;11.70;99.90
49465;DHT22;35358;49.342;8.802;2023-04-23T04:21:15;11.70;99.90
49465;DHT22;35358;49.342;8.802;2023-04-23T04:23:42;11.70;99.90
49465;DHT22;35358;49.342;8.802;2023-04-23T04:26:10;11.70;99.90
49465;DHT22;35358;49.342;8.802;2023-04-23T04:28:39;11.70;99.90
49465;DHT22;35358;49.342;8.802;2023-04-23T04:31:05;11.80;99.90
49465;DHT22;35358;49.342;8.802;2023-04-23T04:33:35;11.80;99.90
49465;DHT22;35358;49.342;8.802;2023-04-23T04:36:04;11.80;99.90
49465;DHT22;35358;49.342;8.802;2023-04-23T04:38:29;11.80;99.90
49465;DHT22;35358;49.342;8.802;2023-04-23T04:40:55;11.70;99.90
49465;DHT22;35358;49.342;8.802;2023-04-23T04:43:26;11.80;99.90
49465;DHT22;35358;49.342;8.802;2023-04-23T04:45:54;11.80;99.90
49465;DHT22;35358;49.342;8.802;2023-04-23T04:48:22;11.80;99.90
49465;DHT22;35358;49.342;8.802;2023-04-23T04:50:47;11.80;99.90
49465;DHT22;35358;49.342;8.802;2023-04-23T04:53:13;11.80;99.90
49465;DHT22;35358;49.342;8.802;2023-04-23T04:55:39;11.70;99.90
49465;DHT22;35358;49.342;8.802;2023-04-23T04:58:05;11.70;99.90
49465;DHT22;35358;49.342;8.802;2023-04-23T05:00:30;11.80;99.90
49465;DHT22;35358;49.342;8.802;2023-04-23T05:02:59;11.70;99.90
49465;DHT22;35358;49.342;8.802;2023-04-23T05:05:26;11.80;99.90
49465;DHT22;35358;49.342;8.802;2023-04-23T05:07:52;11.70;99.90
49465;DHT22;35358;49.342;8.802;2023-04-23T05:10:26;11.70;99.90
49465;DHT22;35358;49.342;8.802;2023-04-23T05:12:58;11.80;99.90
49465;DHT22;35358;49.342;8.802;2023-04-23T05:15:27;11.80;99.90
49465;DHT22;35358;49.342;8.802;2023-04-23T05:17:55;11.80;99.90
49465;DHT22;35358;49.342;8.802;2023-04-23T05:20:21;11.80;99.90
49465;DHT22;35358;49.342;8.802;2023-04-23T05:22:47;11.80;99.90
49465;DHT22;35358;49.342;8.802;2023-04-23T05:25:12;11.90;99.90
49465;DHT22;35358;49.342;8.802;2023-04-23T05:27:38;11.80;99.90
49465;DHT22;35358;49.342;8.802;2023-04-23T05:30:09;11.80;99.90
49465;DHT22;35358;49.342;8.802;2023-04-23T05:32:35;11.80;99.90
49465;DHT22;35358;49.342;8.802;2023-04-23T05:35:03;11.90;99.90
49465;DHT22;35358;49.342;8.802;2023-04-23T05:37:29;11.90;99.90
49465;DHT22;35358;49.342;8.802;2023-04-23T05:39:55;12.00;99.90
49465;DHT22;35358;49.342;8.802;2023-04-23T05:42:22;12.00;99.90
49465;DHT22;35358;49.342;8.802;2023-04-23T05:44:48;12.00;99.90
49465;DHT22;35358;49.342;8.802;2023-04-23T05:47:13;12.10;99.90
49465;DHT22;35358;49.342;8.802;2023-04-23T05:49:43;12.00;99.90
49465;DHT22;35358;49.342;8.802;2023-04-23T05:52:09;12.00;99.90
49465;DHT22;35358;49.342;8.802;2023-04-23T05:54:37;12.10;99.90
49465;DHT22;35358;49.342;8.802;2023-04-23T05:57:03;12.00;99.90
49465;DHT22;35358;49.342;8.802;2023-04-23T05:59:32;12.20;99.90
49465;DHT22;35358;49.342;8.802;2023-04-23T06:01:58;12.20;99.90
49465;DHT22;35358;49.342;8.802;2023-04-23T06:04:24;12.20;99.90
49465;DHT22;35358;49.342;8.802;2023-04-23T06:06:49;12.20;99.90
49465;DHT22;35358;49.342;8.802;2023-04-23T06:09:17;12.30;99.90
49465;DHT22;35358;49.342;8.802;2023-04-23T06:11:45;12.30;99.90
49465;DHT22;35358;49.342;8.802;2023-04-23T06:14:17;12.40;99.90
49465;DHT22;35358;49.342;8.802;2023-04-23T06:16:42;12.40;99.90
49465;DHT22;35358;49.342;8.802;2023-04-23T06:19:11;12.50;99.90
49465;DHT22;35358;49.342;8.802;2023-04-23T06:21:36;12.50;99.90
49465;DHT22;35358;49.342;8.802;2023-04-23T06:24:05;12.50;99.90
49465;DHT22;35358;49.342;8.802;2023-04-23T06:26:32;12.40;99.90
49465;DHT22;35358;49.342;8.802;2023-04-23T06:29:00;12.50;99.90
49465;DHT22;35358;49.342;8.802;2023-04-23T06:31:28;12.50;99.90
49465;DHT22;35358;49.342;8.802;2023-04-23T06:33:53;12.60;99.90
49465;DHT22;35358;49.342;8.802;2023-04-23T06:36:19;12.60;99.90
49465;DHT22;35358;49.342;8.802;2023-04-23T06:38:47;12.70;99.90
49465;DHT22;35358;49.342;8.802;2023-04-23T06:41:15;12.70;99.90
49465;DHT22;35358;49.342;8.802;2023-04-23T06:43:41;12.80;99.90
49465;DHT22;35358;49.342;8.802;2023-04-23T06:46:09;12.90;99.90
49465;DHT22;35358;49.342;8.802;2023-04-23T06:48:37;12.90;99.90
49465;DHT22;35358;49.342;8.802;2023-04-23T06:51:02;13.00;99.90
49465;DHT22;35358;49.342;8.802;2023-04-23T06:53:28;13.10;99.90
49465;DHT22;35358;49.342;8.802;2023-04-23T06:55:56;13.20;99.90
49465;DHT22;35358;49.342;8.802;2023-04-23T06:58:26;13.30;99.90
49465;DHT22;35358;49.342;8.802;2023-04-23T07:00:59;13.20;99.90
49465;DHT22;35358;49.342;8.802;2023-04-23T07:03:26;13.40;99.90
49465;DHT22;35358;49.342;8.802;2023-04-23T07:05:53;13.50;99.90
49465;DHT22;35358;49.342;8.802;2023-04-23T07:08:18;13.60;99.90
49465;DHT22;35358;49.342;8.802;2023-04-23T07:10:45;13.70;99.90
49465;DHT22;35358;49.342;8.802;2023-04-23T07:13:16;13.60;99.90
49465;DHT22;35358;49.342;8.802;2023-04-23T07:15:44;13.60;99.90
49465;DHT22;35358;49.342;8.802;2023-04-23T07:18:10;13.30;99.90
49465;DHT22;35358;49.342;8.802;2023-04-23T07:20:36;13.30;99.90
49465;DHT22;35358;49.342;8.802;2023-04-23T07:23:02;13.40;99.90
49465;DHT22;35358;49.342;8.802;2023-04-23T07:25:30;13.40;99.90
49465;DHT22;35358;49.342;8.802;2023-04-23T07:27:58;13.60;99.90
49465;DHT22;35358;49.342;8.802;2023-04-23T07:30:24;13.60;99.90
49465;DHT22;35358;49.342;8.802;2023-04-23T07:32:50;13.60;99.90
49465;DHT22;35358;49.342;8.802;2023-04-23T07:35:16;13.60;99.90
49465;DHT22;35358;49.342;8.802;2023-04-23T07:37:47;13.70;99.90
49465;DHT22;35358;49.342;8.802;2023-04-23T07:40:20;13.80;99.90
49465;DHT22;35358;49.342;8.802;2023-04-23T07:42:49;13.70;99.90
49465;DHT22;35358;49.342;8.802;2023-04-23T07:45:18;13.70;99.90
49465;DHT22;35358;49.342;8.802;2023-04-23T07:47:44;13.80;99.90
49465;DHT22;35358;49.342;8.802;2023-04-23T07:50:11;13.70;99.90
49465;DHT22;35358;49.342;8.802;2023-04-23T07:52:40;13.70;99.90
49465;DHT22;35358;49.342;8.802;2023-04-23T07:55:08;13.80;99.90
49465;DHT22;35358;49.342;8.802;2023-04-23T07:57:38;13.80;99.90
49465;DHT22;35358;49.342;8.802;2023-04-23T08:00:06;13.90;99.90
49465;DHT22;35358;49.342;8.802;2023-04-23T08:02:38;14.20;99.90
49465;DHT22;35358;49.342;8.802;2023-04-23T08:05:04;14.40;99.90
49465;DHT22;35358;49.342;8.802;2023-04-23T08:07:31;14.70;99.90
49465;DHT22;35358;49.342;8.802;2023-04-23T08:09:59;14.90;99.90
49465;DHT22;35358;49.342;8.802;2023-04-23T08:12:28;15.10;99.90
49465;DHT22;35358;49.342;8.802;2023-04-23T08:14:55;15.40;99.90
49465;DHT22;35358;49.342;8.802;2023-04-23T08:17:20;15.40;99.90
49465;DHT22;35358;49.342;8.802;2023-04-23T08:19:46;15.60;99.90
49465;DHT22;35358;49.342;8.802;2023-04-23T08:22:11;15.70;99.90
49465;DHT22;35358;49.342;8.802;2023-04-23T08:24:40;15.60;99.90
49465;DHT22;35358;49.342;8.802;2023-04-23T08:27:06;15.70;99.90
49465;DHT22;35358;49.342;8.802;2023-04-23T08:29:31;15.80;99.90
49465;DHT22;35358;49.342;8.802;2023-04-23T08:31:59;15.70;99.90
49465;DHT22;35358;49.342;8.802;2023-04-23T08:34:25;15.90;99.90
49465;DHT22;35358;49.342;8.802;2023-04-23T08:36:51;16.00;99.90
49465;DHT22;35358;49.342;8.802;2023-04-23T08:39:16;15.90;99.90
49465;DHT22;35358;49.342;8.802;2023-04-23T08:41:43;15.90;99.90
49465;DHT22;35358;49.342;8.802;2023-04-23T08:46:43;15.50;99.90
49465;DHT22;35358;49.342;8.802;2023-04-23T08:49:15;15.50;99.90
49465;DHT22;35358;49.342;8.802;2023-04-23T08:54:27;15.40;99.90
49465;DHT22;35358;49.342;8.802;2023-04-23T08:56:56;15.70;99.90
49465;DHT22;35358;49.342;8.802;2023-04-23T08:59:24;15.80;99.90
49465;DHT22;35358;49.342;8.802;2023-04-23T09:01:52;16.00;99.90
49465;DHT22;35358;49.342;8.802;2023-04-23T09:04:17;16.40;99.90
49465;DHT22;35358;49.342;8.802;2023-04-23T09:06:45;16.20;99.90
49465;DHT22;35358;49.342;8.802;2023-04-23T09:09:15;16.50;99.90
49465;DHT22;35358;49.342;8.802;2023-04-23T09:11:45;16.40;99.90
49465;DHT22;35358;49.342;8.802;2023-04-23T09:14:13;16.50;99.90
49465;DHT22;35358;49.342;8.802;2023-04-23T09:16:39;16.50;99.90
49465;DHT22;35358;49.342;8.802;2023-04-23T09:19:09;16.40;99.90
49465;DHT22;35358;49.342;8.802;2023-04-23T09:21:35;16.20;99.90
49465;DHT22;35358;49.342;8.802;2023-04-23T09:24:08;16.10;99.90
49465;DHT22;35358;49.342;8.802;2023-04-23T09:26:47;15.80;99.90
49465;DHT22;35358;49.342;8.802;2023-04-23T09:29:15;15.80;99.90
49465;DHT22;35358;49.342;8.802;2023-04-23T09:31:47;16.00;99.90
49465;DHT22;35358;49.342;8.802;2023-04-23T09:34:17;16.10;99.90
49465;DHT22;35358;49.342;8.802;2023-04-23T09:36:48;16.40;99.90
49465;DHT22;35358;49.342;8.802;2023-04-23T09:39:18;16.50;99.90
49465;DHT22;35358;49.342;8.802;2023-04-23T09:41:47;16.60;99.90
49465;DHT22;35358;49.342;8.802;2023-04-23T09:44:21;17.00;99.90
49465;DHT22;35358;49.342;8.802;2023-04-23T09:46:47;17.10;99.90
49465;DHT22;35358;49.342;8.802;2023-04-23T09:49:14;16.70;99.90
49465;DHT22;35358;49.342;8.802;2023-04-23T09:54:21;16.90;99.90
49465;DHT22;35358;49.342;8.802;2023-04-23T09:56:52;17.10;99.90
49465;DHT22;35358;49.342;8.802;2023-04-23T09:59:30;17.00;99.90
49465;DHT22;35358;49.342;8.802;2023-04-23T10:02:04;17.50;99.90
49465;DHT22;35358;49.342;8.802;2023-04-23T10:04:30;17.70;99.90
49465;DHT22;35358;49.342;8.802;2023-04-23T10:07:00;17.60;99.90
49465;DHT22;35358;49.342;8.802;2023-04-23T10:09:30;17.30;99.90
49465;DHT22;35358;49.342;8.802;2023-04-23T10:12:02;17.40;99.90
49465;DHT22;35358;49.342;8.802;2023-04-23T10:14:28;17.30;99.90
49465;DHT22;35358;49.342;8.802;2023-04-23T10:19:24;17.30;99.90
49465;DHT22;35358;49.342;8.802;2023-04-23T10:22:06;17.10;99.90
49465;DHT22;35358;49.342;8.802;2023-04-23T10:24:34;17.20;99.90
49465;DHT22;35358;49.342;8.802;2023-04-23T10:27:03;17.40;99.90
49465;DHT22;35358;49.342;8.802;2023-04-23T10:29:31;17.60;99.90
49465;DHT22;35358;49.342;8.802;2023-04-23T10:31:59;17.70;99.90
49465;DHT22;35358;49.342;8.802;2023-04-23T10:34:26;17.60;99.90
49465;DHT22;35358;49.342;8.802;2023-04-23T10:36:55;17.40;99.90
49465;DHT22;35358;49.342;8.802;2023-04-23T10:39:23;17.40;99.90
49465;DHT22;35358;49.342;8.802;2023-04-23T10:41:55;17.20;99.90
49465;DHT22;35358;49.342;8.802;2023-04-23T10:44:31;17.30;99.90
49465;DHT22;35358;49.342;8.802;2023-04-23T10:46:57;17.60;99.90
49465;DHT22;35358;49.342;8.802;2023-04-23T10:49:28;17.70;99.90
49465;DHT22;35358;49.342;8.802;2023-04-23T10:54:39;17.80;99.90
49465;DHT22;35358;49.342;8.802;2023-04-23T10:57:09;17.70;99.90
49465;DHT22;35358;49.342;8.802;2023-04-23T10:59:39;17.80;99.90
49465;DHT22;35358;49.342;8.802;2023-04-23T11:04:34;17.60;99.90
49465;DHT22;35358;49.342;8.802;2023-04-23T11:07:05;17.50;99.90
49465;DHT22;35358;49.342;8.802;2023-04-23T11:09:41;17.70;99.90
49465;DHT22;35358;49.342;8.802;2023-04-23T11:12:30;17.60;99.90
49465;DHT22;35358;49.342;8.802;2023-04-23T11:15:00;17.70;99.90
49465;DHT22;35358;49.342;8.802;2023-04-23T11:22:36;17.80;99.90
49465;DHT22;35358;49.342;8.802;2023-04-23T11:25:03;17.80;99.90
49465;DHT22;35358;49.342;8.802;2023-04-23T11:27:32;17.90;99.90
49465;DHT22;35358;49.342;8.802;2023-04-23T11:30:00;17.70;99.90
49465;DHT22;35358;49.342;8.802;2023-04-23T11:32:29;17.80;99.90
49465;DHT22;35358;49.342;8.802;2023-04-23T11:34:56;17.90;99.90
49465;DHT22;35358;49.342;8.802;2023-04-23T11:37:24;18.10;99.90
49465;DHT22;35358;49.342;8.802;2023-04-23T11:39:50;18.40;99.90
49465;DHT22;35358;49.342;8.802;2023-04-23T11:42:16;18.40;99.90
49465;DHT22;35358;49.342;8.802;2023-04-23T11:44:47;18.30;99.90
49465;DHT22;35358;49.342;8.802;2023-04-23T11:47:14;18.40;99.90
49465;DHT22;35358;49.342;8.802;2023-04-23T11:49:43;18.50;99.90
49465;DHT22;35358;49.342;8.802;2023-04-23T11:52:10;18.60;99.90
49465;DHT22;35358;49.342;8.802;2023-04-23T11:54:42;18.70;99.90
49465;DHT22;35358;49.342;8.802;2023-04-23T11:57:07;18.40;99.90
49465;DHT22;35358;49.342;8.802;2023-04-23T11:59:34;18.50;99.90
49465;DHT22;35358;49.342;8.802;2023-04-23T12:02:00;18.50;99.90
49465;DHT22;35358;49.342;8.802;2023-04-23T12:04:29;18.50;99.90
49465;DHT22;35358;49.342;8.802;2023-04-23T12:06:56;18.90;99.90
49465;DHT22;35358;49.342;8.802;2023-04-23T12:09:25;19.30;99.90
49465;DHT22;35358;49.342;8.802;2023-04-23T12:11:54;19.80;99.90
49465;DHT22;35358;49.342;8.802;2023-04-23T12:14:26;19.80;99.90
49465;DHT22;35358;49.342;8.802;2023-04-23T12:16:53;20.10;99.90
49465;DHT22;35358;49.342;8.802;2023-04-23T12:19:29;19.80;99.90
49465;DHT22;35358;49.342;8.802;2023-04-23T12:21:59;19.50;99.90
49465;DHT22;35358;49.342;8.802;2023-04-23T12:24:30;19.60;99.90
49465;DHT22;35358;49.342;8.802;2023-04-23T12:27:00;19.20;99.90
49465;DHT22;35358;49.342;8.802;2023-04-23T12:29:29;19.10;99.90
49465;DHT22;35358;49.342;8.802;2023-04-23T12:31:59;19.30;99.90
49465;DHT22;35358;49.342;8.802;2023-04-23T12:34:27;19.90;99.90
49465;DHT22;35358;49.342;8.802;2023-04-23T12:36:55;20.20;99.90
49465;DHT22;35358;49.342;8.802;2023-04-23T12:41:56;20.00;99.90
49465;DHT22;35358;49.342;8.802;2023-04-23T12:44:28;19.90;99.90
49465;DHT22;35358;49.342;8.802;2023-04-23T12:46:57;19.80;99.90
49465;DHT22;35358;49.342;8.802;2023-04-23T12:49:26;20.10;99.90
49465;DHT22;35358;49.342;8.802;2023-04-23T12:51:55;20.00;99.90
49465;DHT22;35358;49.342;8.802;2023-04-23T12:54:34;19.90;99.90
49465;DHT22;35358;49.342;8.802;2023-04-23T12:57:02;19.90;99.90
49465;DHT22;35358;49.342;8.802;2023-04-23T12:59:28;20.40;99.90
49465;DHT22;35358;49.342;8.802;2023-04-23T13:01:54;20.60;99.90
49465;DHT22;35358;49.342;8.802;2023-04-23T13:04:20;20.80;99.90
49465;DHT22;35358;49.342;8.802;2023-04-23T13:06:50;21.10;99.90
49465;DHT22;35358;49.342;8.802;2023-04-23T13:09:16;20.90;99.90
49465;DHT22;35358;49.342;8.802;2023-04-23T13:11:43;21.10;99.90
49465;DHT22;35358;49.342;8.802;2023-04-23T13:14:13;21.40;99.90
49465;DHT22;35358;49.342;8.802;2023-04-23T13:16:39;21.40;99.90
49465;DHT22;35358;49.342;8.802;2023-04-23T13:19:05;21.60;99.90
49465;DHT22;35358;49.342;8.802;2023-04-23T13:21:30;21.60;99.90
49465;DHT22;35358;49.342;8.802;2023-04-23T13:23:56;21.40;99.90
49465;DHT22;35358;49.342;8.802;2023-04-23T13:26:24;21.60;99.90
49465;DHT22;35358;49.342;8.802;2023-04-23T13:28:53;21.90;99.90
49465;DHT22;35358;49.342;8.802;2023-04-23T13:31:23;21.90;99.90
49465;DHT22;35358;49.342;8.802;2023-04-23T13:33:48;21.80;99.90
49465;DHT22;35358;49.342;8.802;2023-04-23T13:36:18;22.20;99.90
49465;DHT22;35358;49.342;8.802;2023-04-23T13:38:44;22.30;99.90
49465;DHT22;35358;49.342;8.802;2023-04-23T13:41:10;22.40;99.90
49465;DHT22;35358;49.342;8.802;2023-04-23T13:43:35;21.90;99.90
49465;DHT22;35358;49.342;8.802;2023-04-23T13:46:03;22.20;99.90
49465;DHT22;35358;49.342;8.802;2023-04-23T13:48:31;21.50;99.90
49465;DHT22;35358;49.342;8.802;2023-04-23T13:51:00;21.80;99.90
49465;DHT22;35358;49.342;8.802;2023-04-23T13:53:26;22.20;99.90
49465;DHT22;35358;49.342;8.802;2023-04-23T13:55:58;22.00;99.90
49465;DHT22;35358;49.342;8.802;2023-04-23T13:58:24;21.80;99.90
49465;DHT22;35358;49.342;8.802;2023-04-23T14:00:50;21.60;99.90
49465;DHT22;35358;49.342;8.802;2023-04-23T14:03:16;21.90;99.90
49465;DHT22;35358;49.342;8.802;2023-04-23T14:05:42;22.40;99.90
49465;DHT22;35358;49.342;8.802;2023-04-23T14:08:07;22.20;99.90
49465;DHT22;35358;49.342;8.802;2023-04-23T14:10:33;22.00;99.90
49465;DHT22;35358;49.342;8.802;2023-04-23T14:13:00;21.80;99.90
49465;DHT22;35358;49.342;8.802;2023-04-23T14:15:27;21.40;99.90
49465;DHT22;35358;49.342;8.802;2023-04-23T14:17:54;20.90;99.90
49465;DHT22;35358;49.342;8.802;2023-04-23T14:20:23;21.60;99.90
49465;DHT22;35358;49.342;8.802;2023-04-23T14:23:00;21.90;99.90
49465;DHT22;35358;49.342;8.802;2023-04-23T14:25:34;21.90;99.90
49465;DHT22;35358;49.342;8.802;2023-04-23T14:28:21;21.80;99.90
49465;DHT22;35358;49.342;8.802;2023-04-23T14:30:48;21.60;99.90
49465;DHT22;35358;49.342;8.802;2023-04-23T14:33:16;21.50;99.90
49465;DHT22;35358;49.342;8.802;2023-04-23T14:35:44;21.20;99.90
49465;DHT22;35358;49.342;8.802;2023-04-23T14:38:12;21.30;99.90
49465;DHT22;35358;49.342;8.802;2023-04-23T14:40:37;21.10;99.90
49465;DHT22;35358;49.342;8.802;2023-04-23T14:43:03;21.00;99.90
49465;DHT22;35358;49.342;8.802;2023-04-23T14:45:32;21.10;99.90
49465;DHT22;35358;49.342;8.802;2023-04-23T14:48:00;21.00;99.90
49465;DHT22;35358;49.342;8.802;2023-04-23T14:50:26;21.10;99.90
49465;DHT22;35358;49.342;8.802;2023-04-23T14:52:55;21.20;99.90
49465;DHT22;35358;49.342;8.802;2023-04-23T14:55:21;21.00;99.90
49465;DHT22;35358;49.342;8.802;2023-04-23T14:57:47;20.80;99.90
49465;DHT22;35358;49.342;8.802;2023-04-23T15:00:16;20.90;99.90
49465;DHT22;35358;49.342;8.802;2023-04-23T15:02:42;21.10;99.90
49465;DHT22;35358;49.342;8.802;2023-04-23T15:05:11;21.00;99.90
49465;DHT22;35358;49.342;8.802;2023-04-23T15:07:40;20.80;99.90
49465;DHT22;35358;49.342;8.802;2023-04-23T15:10:11;20.60;99.90
49465;DHT22;35358;49.342;8.802;2023-04-23T15:12:47;20.40;99.90
49465;DHT22;35358;49.342;8.802;2023-04-23T15:15:19;20.40;99.90
49465;DHT22;35358;49.342;8.802;2023-04-23T15:17:48;20.40;99.90
49465;DHT22;35358;49.342;8.802;2023-04-23T15:20:14;20.40;99.90
49465;DHT22;35358;49.342;8.802;2023-04-23T15:22:41;20.30;99.90
49465;DHT22;35358;49.342;8.802;2023-04-23T15:25:09;20.60;99.90
49465;DHT22;35358;49.342;8.802;2023-04-23T15:27:35;20.90;99.90
49465;DHT22;35358;49.342;8.802;2023-04-23T15:30:04;21.10;99.90
49465;DHT22;35358;49.342;8.802;2023-04-23T15:32:30;21.10;99.90
49465;DHT22;35358;49.342;8.802;2023-04-23T15:34:55;21.40;99.90
49465;DHT22;35358;49.342;8.802;2023-04-23T15:37:21;21.80;99.90
49465;DHT22;35358;49.342;8.802;2023-04-23T15:39:51;21.60;99.90
49465;DHT22;35358;49.342;8.802;2023-04-23T15:42:16;21.40;99.90
49465;DHT22;35358;49.342;8.802;2023-04-23T15:44:48;21.50;99.90
49465;DHT22;35358;49.342;8.802;2023-04-23T15:47:15;21.50;99.90
49465;DHT22;35358;49.342;8.802;2023-04-23T15:49:40;21.20;99.90
49465;DHT22;35358;49.342;8.802;2023-04-23T15:52:06;20.80;99.90
49465;DHT22;35358;49.342;8.802;2023-04-23T15:54:31;20.50;99.90
49465;DHT22;35358;49.342;8.802;2023-04-23T15:56:57;20.30;99.90